sensor_id;sensor_type;location;lat;lon;timestamp;temperature;humidity
30206;DHT22;17010;51.306;3.150;2023-07-20T06:01:12;20.00;99.90
30206;DHT22;17010;51.306;3.150;2023-07-20T06:03:38;20.00;99.90
30206;DHT22;17010;51.306;3.150;2023-07-20T06:06:08;20.40;99.90
30206;DHT22;17010;51.306;3.150;2023-07-20T06:08:38;20.90;99.90
30206;DHT22;17010;51.306;3.150;2023-07-20T06:11:04;21.50;99.90
30206;DHT22;17010;51.306;3.150;2023-07-20T06:13:30;22.10;99.90
30206;DHT22;17010;51.306;3.150;2023-07-20T06:15:57;22.70;99.90
30206;DHT22;17010;51.306;3.150;2023-07-20T06:18:24;23.20;99.90
30206;DHT22;17010;51.306;3.150;2023-07-20T06:20:53;23.70;99.90
30206;DHT22;17010;51.306;3.150;2023-07-20T06:23:19;23.70;99.90
30206;DHT22;17010;51.306;3.150;2023-07-20T06:25:46;24.00;99.90
30206;DHT22;17010;51.306;3.150;2023-07-20T06:28:13;24.20;99.90
30206;DHT22;17010;51.306;3.150;2023-07-20T06:30:40;24.10;99.90
30206;DHT22;17010;51.306;3.150;2023-07-20T06:33:16;23.70;99.90
30206;DHT22;17010;51.306;3.150;2023-07-20T06:35:43;23.10;99.90
30206;DHT22;17010;51.306;3.150;2023-07-20T06:38:09;22.60;99.90
30206;DHT22;17010;51.306;3.150;2023-07-20T06:40:35;22.20;99.90
30206;DHT22;17010;51.306;3.150;2023-07-20T06:43:01;21.70;99.90
30206;DHT22;17010;51.306;3.150;2023-07-20T06:45:28;21.70;99.90
30206;DHT22;17010;51.306;3.150;2023-07-20T06:47:54;21.90;99.90
30206;DHT22;17010;51.306;3.150;2023-07-20T06:50:21;22.00;99.90
30206;DHT22;17010;51.306;3.150;2023-07-20T06:52:49;22.60;99.90
30206;DHT22;17010;51.306;3.150;2023-07-20T06:55:15;23.20;99.90
30206;DHT22;17010;51.306;3.150;2023-07-20T06:57:41;23.50;99.90
30206;DHT22;17010;51.306;3.150;2023-07-20T07:00:08;23.60;99.90
30206;DHT22;17010;51.306;3.150;2023-07-20T07:02:34;23.80;99.90
30206;DHT22;17010;51.306;3.150;2023-07-20T07:05:00;23.90;99.90
30206;DHT22;17010;51.306;3.150;2023-07-20T07:07:27;23.90;99.90
30206;DHT22;17010;51.306;3.150;2023-07-20T07:09:53;23.90;99.90
30206;DHT22;17010;51.306;3.150;2023-07-20T07:12:20;24.10;99.90
30206;DHT22;17010;51.306;3.150;2023-07-20T07:14:46;23.90;99.90
30206;DHT22;17010;51.306;3.150;2023-07-20T07:17:13;23.70;99.90
30206;DHT22;17010;51.306;3.150;2023-07-20T07:19:44;23.60;99.90
30206;DHT22;17010;51.306;3.150;2023-07-20T07:22:10;23.50;99.90
30206;DHT22;17010;51.306;3.150;2023-07-20T07:24:37;23.00;99.90
30206;DHT22;17010;51.306;3.150;2023-07-20T07:27:04;23.00;99.90
30206;DHT22;17010;51.306;3.150;2023-07-20T07:29:31;23.50;99.90
30206;DHT22;17010;51.306;3.150;2023-07-20T07:31:57;23.80;99.90
30206;DHT22;17010;51.306;3.150;2023-07-20T07:34:24;24.30;99.90
30206;DHT22;17010;51.306;3.150;2023-07-20T07:36:53;24.90;99.90
30206;DHT22;17010;51.306;3.150;2023-07-20T07:39:19;25.10;99.90
30206;DHT22;17010;51.306;3.150;2023-07-20T07:41:45;24.70;99.90
30206;DHT22;17010;51.306;3.150;2023-07-20T07:44:12;24.10;99.90
30206;DHT22;17010;51.306;3.150;2023-07-20T07:46:40;23.50;99.90
30206;DHT22;17010;51.306;3.150;2023-07-20T07:49:07;23.10;99.90
30206;DHT22;17010;51.306;3.150;2023-07-20T07:51:38;22.90;99.90
30206;DHT22;17010;51.306;3.150;2023-07-20T07:54:05;22.60;99.90
30206;DHT22;17010;51.306;3.150;2023-07-20T07:56:51;22.10;99.90
30206;DHT22;17010;51.306;3.150;2023-07-20T07:59:20;21.90;99.90
30206;DHT22;17010;51.306;3.150;2023-07-20T08:12:27;21.30;99.90
30206;DHT22;17010;51.306;3.150;2023-07-20T08:14:58;21.40;99.90
30206;DHT22;17010;51.306;3.150;2023-07-20T08:17:24;21.80;99.90
30206;DHT22;17010;51.306;3.150;2023-07-20T08:19:51;22.20;99.90
30206;DHT22;17010;51.306;3.150;2023-07-20T08:22:22;22.50;99.90
30206;DHT22;17010;51.306;3.150;2023-07-20T08:24:49;22.80;99.90
30206;DHT22;17010;51.306;3.150;2023-07-20T08:27:15;23.10;99.90
30206;DHT22;17010;51.306;3.150;2023-07-20T08:29:41;23.20;99.90
30206;DHT22;17010;51.306;3.150;2023-07-20T08:32:10;23.10;99.90
30206;DHT22;17010;51.306;3.150;2023-07-20T08:34:37;23.10;99.90
30206;DHT22;17010;51.306;3.150;2023-07-20T08:37:03;23.10;99.90
30206;DHT22;17010;51.306;3.150;2023-07-20T08:39:30;23.00;99.90
30206;DHT22;17010;51.306;3.150;2023-07-20T08:41:58;23.10;99.90
30206;DHT22;17010;51.306;3.150;2023-07-20T08:44:26;23.00;99.90
30206;DHT22;17010;51.306;3.150;2023-07-20T08:46:52;23.30;99.90
30206;DHT22;17010;51.306;3.150;2023-07-20T08:49:18;23.40;99.90
30206;DHT22;17010;51.306;3.150;2023-07-20T08:51:46;23.50;99.90
30206;DHT22;17010;51.306;3.150;2023-07-20T08:54:13;23.30;99.90
30206;DHT22;17010;51.306;3.150;2023-07-20T08:56:39;23.20;99.90
30206;DHT22;17010;51.306;3.150;2023-07-20T08:59:09;23.00;99.90
30206;DHT22;17010;51.306;3.150;2023-07-20T09:01:40;22.80;99.90
30206;DHT22;17010;51.306;3.150;2023-07-20T09:04:07;22.80;99.90
30206;DHT22;17010;51.306;3.150;2023-07-20T09:06:34;23.00;99.90
30206;DHT22;17010;51.306;3.150;2023-07-20T09:09:01;23.10;99.90
30206;DHT22;17010;51.306;3.150;2023-07-20T09:11:28;23.30;99.90
30206;DHT22;17010;51.306;3.150;2023-07-20T09:14:08;23.30;99.90
30206;DHT22;17010;51.306;3.150;2023-07-20T09:16:48;23.30;99.90
30206;DHT22;17010;51.306;3.150;2023-07-20T09:19:33;23.40;99.90
30206;DHT22;17010;51.306;3.150;2023-07-20T09:22:00;23.30;99.90
30206;DHT22;17010;51.306;3.150;2023-07-20T09:24:28;23.10;99.90
30206;DHT22;17010;51.306;3.150;2023-07-20T09:26:55;23.10;99.90
30206;DHT22;17010;51.306;3.150;2023-07-20T09:29:21;22.90;99.90
30206;DHT22;17010;51.306;3.150;2023-07-20T09:32:17;23.10;99.90
30206;DHT22;17010;51.306;3.150;2023-07-20T09:34:51;23.90;99.90
30206;DHT22;17010;51.306;3.150;2023-07-20T09:37:22;24.80;99.90
30206;DHT22;17010;51.306;3.150;2023-07-20T09:39:51;24.60;99.90
30206;DHT22;17010;51.306;3.150;2023-07-20T09:42:18;24.70;99.90
30206;DHT22;17010;51.306;3.150;2023-07-20T09:44:44;24.90;99.90
30206;DHT22;17010;51.306;3.150;2023-07-20T09:47:11;25.10;99.90
30206;DHT22;17010;51.306;3.150;2023-07-20T09:49:40;25.50;99.90
30206;DHT22;17010;51.306;3.150;2023-07-20T09:52:10;25.90;99.90
30206;DHT22;17010;51.306;3.150;2023-07-20T09:54:40;25.60;99.90
30206;DHT22;17010;51.306;3.150;2023-07-20T09:57:11;25.80;99.90
30206;DHT22;17010;51.306;3.150;2023-07-20T09:59:38;25.60;99.90
30206;DHT22;17010;51.306;3.150;2023-07-20T10:02:11;25.50;99.90
30206;DHT22;17010;51.306;3.150;2023-07-20T10:04:41;25.50;99.90
30206;DHT22;17010;51.306;3.150;2023-07-20T10:07:10;25.30;99.90
30206;DHT22;17010;51.306;3.150;2023-07-20T10:09:39;25.50;99.90
30206;DHT22;17010;51.306;3.150;2023-07-20T10:12:05;25.50;99.90
30206;DHT22;17010;51.306;3.150;2023-07-20T10:14:33;25.80;99.90
30206;DHT22;17010;51.306;3.150;2023-07-20T10:17:06;25.50;99.90
30206;DHT22;17010;51.306;3.150;2023-07-20T10:19:41;25.50;99.90
30206;DHT22;17010;51.306;3.150;2023-07-20T10:22:31;25.70;99.90
30206;DHT22;17010;51.306;3.150;2023-07-20T10:24:59;26.00;99.90
30206;DHT22;17010;51.306;3.150;2023-07-20T10:27:26;26.50;99.90
30206;DHT22;17010;51.306;3.150;2023-07-20T10:29:53;26.70;99.90
30206;DHT22;17010;51.306;3.150;2023-07-20T10:32:21;26.70;99.90
30206;DHT22;17010;51.306;3.150;2023-07-20T10:34:52;27.10;99.90
30206;DHT22;17010;51.306;3.150;2023-07-20T10:37:46;27.10;99.90
30206;DHT22;17010;51.306;3.150;2023-07-20T10:43:00;26.70;99.90
30206;DHT22;17010;51.306;3.150;2023-07-20T10:45:39;26.50;99.90
30206;DHT22;17010;51.306;3.150;2023-07-20T10:48:16;26.50;99.90
30206;DHT22;17010;51.306;3.150;2023-07-20T10:50:43;26.50;99.90
30206;DHT22;17010;51.306;3.150;2023-07-20T10:53:14;26.40;99.90
30206;DHT22;17010;51.306;3.150;2023-07-20T10:55:44;26.10;99.90
30206;DHT22;17010;51.306;3.150;2023-07-20T10:58:12;25.80;99.90
30206;DHT22;17010;51.306;3.150;2023-07-20T11:01:00;26.10;99.90
30206;DHT22;17010;51.306;3.150;2023-07-20T11:03:31;26.20;99.90
30206;DHT22;17010;51.306;3.150;2023-07-20T11:05:57;26.30;99.90
30206;DHT22;17010;51.306;3.150;2023-07-20T11:08:45;25.90;99.90
30206;DHT22;17010;51.306;3.150;2023-07-20T11:11:44;25.60;99.90
30206;DHT22;17010;51.306;3.150;2023-07-20T11:14:21;25.90;99.90
30206;DHT22;17010;51.306;3.150;2023-07-20T11:16:52;26.10;99.90
30206;DHT22;17010;51.306;3.150;2023-07-20T11:19:25;25.80;99.90
30206;DHT22;17010;51.306;3.150;2023-07-20T11:21:53;25.80;99.90
30206;DHT22;17010;51.306;3.150;2023-07-20T11:24:20;26.00;99.90
30206;DHT22;17010;51.306;3.150;2023-07-20T11:26:48;26.00;99.90
30206;DHT22;17010;51.306;3.150;2023-07-20T11:29:16;25.90;99.90
30206;DHT22;17010;51.306;3.150;2023-07-20T11:31:44;24.70;99.90
30206;DHT22;17010;51.306;3.150;2023-07-20T11:34:12;23.90;99.90
30206;DHT22;17010;51.306;3.150;2023-07-20T11:36:58;23.20;99.90
30206;DHT22;17010;51.306;3.150;2023-07-20T11:39:33;22.70;99.90
30206;DHT22;17010;51.306;3.150;2023-07-20T11:42:04;22.10;99.90
30206;DHT22;17010;51.306;3.150;2023-07-20T12:46:47;21.10;99.90
30206;DHT22;17010;51.306;3.150;2023-07-20T12:49:15;21.30;99.90
30206;DHT22;17010;51.306;3.150;2023-07-20T12:51:41;21.50;99.90
30206;DHT22;17010;51.306;3.150;2023-07-20T12:54:08;21.80;99.90
30206;DHT22;17010;51.306;3.150;2023-07-20T12:56:34;21.90;99.90
30206;DHT22;17010;51.306;3.150;2023-07-20T12:59:01;21.90;99.90
30206;DHT22;17010;51.306;3.150;2023-07-20T13:01:29;22.10;99.90
30206;DHT22;17010;51.306;3.150;2023-07-20T13:03:59;22.10;99.90
30206;DHT22;17010;51.306;3.150;2023-07-20T13:06:50;22.10;99.90
30206;DHT22;17010;51.306;3.150;2023-07-20T13:09:16;21.80;99.90
30206;DHT22;17010;51.306;3.150;2023-07-20T13:11:42;21.60;99.90
30206;DHT22;17010;51.306;3.150;2023-07-20T13:14:16;21.50;99.90
30206;DHT22;17010;51.306;3.150;2023-07-20T13:16:42;21.60;99.90
30206;DHT22;17010;51.306;3.150;2023-07-20T13:19:10;21.60;99.90
30206;DHT22;17010;51.306;3.150;2023-07-20T13:21:37;21.70;99.90
30206;DHT22;17010;51.306;3.150;2023-07-20T13:24:11;21.80;99.90
30206;DHT22;17010;51.306;3.150;2023-07-20T13:26:39;21.60;99.90
30206;DHT22;17010;51.306;3.150;2023-07-20T13:32:26;21.60;99.90
30206;DHT22;17010;51.306;3.150;2023-07-20T13:37:57;21.30;99.90
30206;DHT22;17010;51.306;3.150;2023-07-20T13:40:26;21.40;99.90
30206;DHT22;17010;51.306;3.150;2023-07-20T13:42:52;21.30;99.90
30206;DHT22;17010;51.306;3.150;2023-07-20T13:45:19;21.40;99.90
30206;DHT22;17010;51.306;3.150;2023-07-20T13:48:04;21.40;99.90
30206;DHT22;17010;51.306;3.150;2023-07-20T13:50:44;21.30;99.90
30206;DHT22;17010;51.306;3.150;2023-07-20T13:53:11;21.30;99.90
30206;DHT22;17010;51.306;3.150;2023-07-20T13:55:39;21.50;99.90
30206;DHT22;17010;51.306;3.150;2023-07-20T13:58:06;21.60;99.90
30206;DHT22;17010;51.306;3.150;2023-07-20T14:00:32;21.70;99.90
30206;DHT22;17010;51.306;3.150;2023-07-20T14:02:59;21.90;99.90
30206;DHT22;17010;51.306;3.150;2023-07-20T14:05:25;22.00;99.90
30206;DHT22;17010;51.306;3.150;2023-07-20T14:07:51;22.10;99.90
30206;DHT22;17010;51.306;3.150;2023-07-20T14:10:17;22.10;99.90
30206;DHT22;17010;51.306;3.150;2023-07-20T14:12:45;22.20;99.90
30206;DHT22;17010;51.306;3.150;2023-07-20T14:15:11;22.20;99.90
30206;DHT22;17010;51.306;3.150;2023-07-20T14:17:53;22.10;99.90
30206;DHT22;17010;51.306;3.150;2023-07-20T14:20:40;22.10;99.90
30206;DHT22;17010;51.306;3.150;2023-07-20T14:23:07;22.00;99.90
30206;DHT22;17010;51.306;3.150;2023-07-20T14:25:34;21.80;99.90
30206;DHT22;17010;51.306;3.150;2023-07-20T14:28:01;21.90;99.90
30206;DHT22;17010;51.306;3.150;2023-07-20T14:30:27;22.00;99.90
30206;DHT22;17010;51.306;3.150;2023-07-20T14:32:55;22.10;99.90
30206;DHT22;17010;51.306;3.150;2023-07-20T14:35:26;22.10;99.90
30206;DHT22;17010;51.306;3.150;2023-07-20T14:38:00;22.10;99.90
30206;DHT22;17010;51.306;3.150;2023-07-20T14:40:28;22.10;99.90
30206;DHT22;17010;51.306;3.150;2023-07-20T14:42:55;22.00;99.90
30206;DHT22;17010;51.306;3.150;2023-07-20T14:45:22;22.10;99.90
30206;DHT22;17010;51.306;3.150;2023-07-20T14:47:48;22.00;99.90
30206;DHT22;17010;51.306;3.150;2023-07-20T14:50:22;22.00;99.90
30206;DHT22;17010;51.306;3.150;2023-07-20T14:52:49;22.20;99.90
30206;DHT22;17010;51.306;3.150;2023-07-20T14:55:15;22.50;99.90
30206;DHT22;17010;51.306;3.150;2023-07-20T14:57:42;22.60;99.90
30206;DHT22;17010;51.306;3.150;2023-07-20T15:00:11;22.60;99.90
30206;DHT22;17010;51.306;3.150;2023-07-20T15:02:38;22.40;99.90
30206;DHT22;17010;51.306;3.150;2023-07-20T15:05:07;22.10;99.90
30206;DHT22;17010;51.306;3.150;2023-07-20T15:07:34;22.10;99.90
30206;DHT22;17010;51.306;3.150;2023-07-20T15:10:06;22.00;99.90
30206;DHT22;17010;51.306;3.150;2023-07-20T15:12:32;21.90;99.90
30206;DHT22;17010;51.306;3.150;2023-07-20T15:15:09;21.70;99.90
30206;DHT22;17010;51.306;3.150;2023-07-20T15:17:41;21.60;99.90
30206;DHT22;17010;51.306;3.150;2023-07-20T15:20:12;21.50;99.90
30206;DHT22;17010;51.306;3.150;2023-07-20T15:22:40;21.40;99.90
30206;DHT22;17010;51.306;3.150;2023-07-20T15:25:07;21.50;99.90
30206;DHT22;17010;51.306;3.150;2023-07-20T15:27:34;21.60;99.90
30206;DHT22;17010;51.306;3.150;2023-07-20T15:30:03;21.50;99.90
30206;DHT22;17010;51.306;3.150;2023-07-20T15:32:44;21.50;99.90
30206;DHT22;17010;51.306;3.150;2023-07-20T15:35:24;21.50;99.90
30206;DHT22;17010;51.306;3.150;2023-07-20T15:37:51;21.50;99.90
30206;DHT22;17010;51.306;3.150;2023-07-20T15:40:18;21.50;99.90
30206;DHT22;17010;51.306;3.150;2023-07-20T15:42:47;21.60;99.90
30206;DHT22;17010;51.306;3.150;2023-07-20T15:45:35;21.80;99.90
30206;DHT22;17010;51.306;3.150;2023-07-20T15:48:02;21.80;99.90
30206;DHT22;17010;51.306;3.150;2023-07-20T15:50:28;21.80;99.90
30206;DHT22;17010;51.306;3.150;2023-07-20T15:52:58;21.90;99.90
30206;DHT22;17010;51.306;3.150;2023-07-20T15:55:27;22.00;99.90
30206;DHT22;17010;51.306;3.150;2023-07-20T15:57:53;21.90;99.90
30206;DHT22;17010;51.306;3.150;2023-07-20T16:00:21;21.90;99.90
30206;DHT22;17010;51.306;3.150;2023-07-20T16:02:48;21.90;99.90
30206;DHT22;17010;51.306;3.150;2023-07-20T16:05:14;21.80;99.90
30206;DHT22;17010;51.306;3.150;2023-07-20T16:07:41;21.80;99.90
30206;DHT22;17010;51.306;3.150;2023-07-20T16:10:10;21.80;99.90
30206;DHT22;17010;51.306;3.150;2023-07-20T16:12:37;21.70;99.90
30206;DHT22;17010;51.306;3.150;2023-07-20T16:15:08;21.50;99.90
30206;DHT22;17010;51.306;3.150;2023-07-20T16:17:50;21.40;99.90
30206;DHT22;17010;51.306;3.150;2023-07-20T16:21:14;21.20;99.90
30206;DHT22;17010;51.306;3.150;2023-07-20T16:32:23;20.80;99.90
30206;DHT22;17010;51.306;3.150;2023-07-20T16:37:55;20.70;99.90
